createdAt,value
2019-05-19T00:00:13.185Z,14.60
2019-05-19T00:00:49.586Z,14.60
2019-05-19T00:01:26.064Z,14.58
2019-05-19T00:02:02.739Z,14.53
2019-05-19T00:02:40.815Z,14.55
2019-05-19T00:03:17.520Z,14.53
2019-05-19T00:03:54.118Z,14.54
2019-05-19T00:04:30.750Z,14.51
2019-05-19T00:05:07.632Z,14.53
2019-05-19T00:05:44.289Z,14.54
2019-05-19T00:06:19.735Z,14.53
2019-05-19T00:06:56.660Z,14.67
2019-05-19T00:07:33.889Z,14.63
2019-05-19T00:08:10.264Z,14.61
2019-05-19T00:08:46.300Z,14.68
2019-05-19T00:09:22.609Z,14.61
2019-05-19T00:09:59.209Z,14.63
2019-05-19T00:10:35.540Z,14.59
2019-05-19T00:11:11.553Z,14.57
2019-05-19T00:11:47.049Z,14.58
2019-05-19T00:12:23.142Z,14.53
2019-05-19T00:13:00.075Z,14.48
2019-05-19T00:13:36.246Z,14.43
2019-05-19T00:14:12.825Z,14.38
2019-05-19T00:14:49.405Z,14.33
2019-05-19T00:15:24.849Z,14.35
2019-05-19T00:16:01.230Z,14.37
2019-05-19T00:16:37.255Z,14.41
2019-05-19T00:17:12.753Z,14.36
2019-05-19T00:17:48.730Z,14.36
2019-05-19T00:18:25.025Z,14.38
2019-05-19T00:19:00.579Z,14.38
2019-05-19T00:19:37.207Z,14.35
2019-05-19T00:20:14.069Z,14.31
2019-05-19T00:20:50.713Z,14.27
2019-05-19T00:21:27.363Z,14.35
2019-05-19T00:22:04.692Z,14.35
2019-05-19T00:22:40.253Z,14.30
2019-05-19T00:23:16.964Z,14.24
2019-05-19T00:23:53.326Z,14.21
2019-05-19T00:24:28.984Z,14.22
2019-05-19T00:25:06.577Z,14.20
2019-05-19T00:25:43.147Z,14.19
2019-05-19T00:26:18.993Z,14.28
2019-05-19T00:26:55.184Z,14.24
2019-05-19T00:27:32.257Z,14.22
2019-05-19T00:28:07.762Z,14.19
2019-05-19T00:28:43.773Z,14.17
2019-05-19T00:29:19.785Z,14.14
2019-05-19T00:29:55.384Z,14.18
2019-05-19T00:30:31.568Z,14.17
2019-05-19T00:31:08.198Z,14.13
2019-05-19T00:31:43.756Z,14.14
2019-05-19T00:32:20.376Z,14.10
2019-05-19T00:32:56.917Z,14.08
2019-05-19T00:33:32.817Z,14.04
2019-05-19T00:34:10.035Z,14.07
2019-05-19T00:34:46.971Z,14.07
2019-05-19T00:35:22.787Z,14.11
2019-05-19T00:35:59.365Z,14.11
2019-05-19T00:36:35.486Z,14.10
2019-05-19T00:37:11.929Z,14.14
2019-05-19T00:37:47.950Z,14.11
2019-05-19T00:38:24.650Z,14.26
2019-05-19T00:39:00.211Z,14.26
2019-05-19T00:39:36.284Z,14.33
2019-05-19T00:40:13.057Z,14.28
2019-05-19T00:40:49.467Z,14.16
2019-05-19T00:41:25.571Z,14.16
2019-05-19T00:42:02.571Z,14.11
2019-05-19T00:42:38.902Z,14.05
2019-05-19T00:43:14.880Z,14.05
2019-05-19T00:43:51.563Z,14.02
2019-05-19T00:44:27.058Z,14.02
2019-05-19T00:45:04.167Z,13.98
2019-05-19T00:45:41.298Z,13.97
2019-05-19T00:46:17.327Z,13.96
2019-05-19T00:46:53.318Z,14.03
2019-05-19T00:47:29.781Z,14.02
2019-05-19T00:48:06.074Z,14.04
2019-05-19T00:48:42.883Z,14.07
2019-05-19T00:49:19.194Z,14.07
2019-05-19T00:49:55.597Z,14.10
2019-05-19T00:50:31.652Z,14.07
2019-05-19T00:51:08.254Z,14.06
2019-05-19T00:51:45.196Z,14.07
2019-05-19T00:52:21.812Z,14.08
2019-05-19T00:52:59.137Z,14.06
2019-05-19T00:53:35.042Z,14.05
2019-05-19T00:54:11.590Z,14.04
2019-05-19T00:54:47.689Z,14.02
2019-05-19T00:55:23.751Z,14.05
2019-05-19T00:56:02.822Z,14.04
2019-05-19T00:56:39.842Z,14.01
2019-05-19T00:57:16.026Z,14.06
2019-05-19T00:57:52.732Z,14.06
2019-05-19T00:58:30.022Z,14.05
2019-05-19T00:59:07.076Z,14.02
2019-05-19T00:59:44.797Z,14.03
2019-05-19T01:00:22.637Z,14.05
2019-05-19T01:00:58.398Z,14.05
2019-05-19T01:01:35.085Z,14.05
2019-05-19T01:02:12.529Z,14.04
2019-05-19T01:02:48.974Z,14.04
2019-05-19T01:03:25.855Z,14.04
2019-05-19T01:04:01.905Z,14.03
2019-05-19T01:04:37.941Z,14.05
2019-05-19T01:05:14.630Z,14.05
2019-05-19T01:05:51.591Z,14.03
2019-05-19T01:06:27.723Z,14.04
2019-05-19T01:07:03.822Z,14.06
2019-05-19T01:07:39.837Z,14.10
2019-05-19T01:08:15.874Z,14.06
2019-05-19T01:08:52.316Z,14.14
2019-05-19T01:09:29.470Z,14.11
2019-05-19T01:10:06.933Z,14.07
2019-05-19T01:10:43.319Z,14.03
2019-05-19T01:11:19.360Z,14.00
2019-05-19T01:11:55.762Z,14.00
2019-05-19T01:12:32.418Z,13.99
2019-05-19T01:13:09.283Z,14.01
2019-05-19T01:13:44.825Z,14.05
2019-05-19T01:14:21.846Z,14.02
2019-05-19T01:14:58.187Z,14.00
2019-05-19T01:15:33.702Z,13.98
2019-05-19T01:16:10.303Z,14.00
2019-05-19T01:16:46.357Z,14.00
2019-05-19T01:17:22.980Z,14.00
2019-05-19T01:17:59.234Z,13.96
2019-05-19T01:18:35.249Z,13.94
2019-05-19T01:19:11.127Z,13.96
2019-05-19T01:19:55.621Z,13.96
2019-05-19T01:20:26.668Z,13.94
2019-05-19T01:21:03.138Z,13.90
2019-05-19T01:21:40.361Z,13.88
2019-05-19T01:22:17.423Z,13.91
2019-05-19T01:22:52.906Z,13.93
2019-05-19T01:23:29.209Z,13.95
2019-05-19T01:24:05.319Z,13.94
2019-05-19T01:24:41.202Z,13.97
2019-05-19T01:25:17.998Z,13.97
2019-05-19T01:25:54.935Z,13.97
2019-05-19T01:26:30.444Z,13.97
2019-05-19T01:27:06.867Z,13.92
2019-05-19T01:27:43.504Z,13.96
2019-05-19T01:28:18.966Z,13.94
2019-05-19T01:28:55.539Z,13.92
2019-05-19T01:29:32.565Z,13.92
2019-05-19T01:30:10.567Z,13.90
2019-05-19T01:30:47.431Z,13.92
2019-05-19T01:31:23.542Z,13.96
2019-05-19T01:32:00.320Z,13.96
2019-05-19T01:32:36.448Z,13.99
2019-05-19T01:33:12.499Z,13.98
2019-05-19T01:33:48.552Z,13.98
2019-05-19T01:34:25.338Z,13.98
2019-05-19T01:35:01.521Z,13.95
2019-05-19T01:35:37.007Z,13.94
2019-05-19T01:36:13.657Z,13.97
2019-05-19T01:36:49.656Z,13.92
2019-05-19T01:37:25.886Z,13.96
2019-05-19T01:38:02.087Z,13.95
2019-05-19T01:38:38.095Z,13.96
2019-05-19T01:39:14.139Z,13.98
2019-05-19T01:39:51.071Z,14.02
2019-05-19T01:40:27.131Z,14.03
2019-05-19T01:41:03.065Z,14.07
2019-05-19T01:41:39.069Z,14.01
2019-05-19T01:42:15.723Z,14.00
2019-05-19T01:42:52.458Z,14.00
2019-05-19T01:43:29.304Z,13.96
2019-05-19T01:44:06.056Z,13.93
2019-05-19T01:44:41.498Z,13.88
2019-05-19T01:45:18.984Z,13.86
2019-05-19T01:45:55.630Z,13.84
2019-05-19T01:46:31.185Z,13.79
2019-05-19T01:47:07.263Z,13.76
2019-05-19T01:47:43.299Z,13.73
2019-05-19T01:48:19.365Z,13.71
2019-05-19T01:48:56.082Z,13.68
2019-05-19T01:49:32.353Z,13.67
2019-05-19T01:50:18.461Z,13.70
2019-05-19T01:50:47.921Z,13.67
2019-05-19T01:51:24.496Z,13.74
2019-05-19T01:52:01.018Z,13.82
2019-05-19T01:52:39.043Z,13.81
2019-05-19T01:53:15.621Z,13.74
2019-05-19T01:53:51.083Z,13.81
2019-05-19T01:54:27.268Z,13.75
2019-05-19T01:55:03.934Z,13.80
2019-05-19T01:55:40.607Z,13.73
2019-05-19T01:56:17.183Z,13.78
2019-05-19T01:56:53.639Z,13.79
2019-05-19T01:57:29.724Z,13.82
2019-05-19T01:58:05.890Z,13.72
2019-05-19T01:58:42.970Z,13.83
2019-05-19T01:59:19.008Z,13.73
2019-05-19T01:59:55.612Z,13.67
2019-05-19T02:00:32.339Z,13.59
2019-05-19T02:01:08.415Z,13.53
2019-05-19T02:01:45.164Z,13.48
2019-05-19T02:02:21.738Z,13.46
2019-05-19T02:02:58.465Z,13.44
2019-05-19T02:03:35.122Z,13.46
2019-05-19T02:04:12.165Z,13.51
2019-05-19T02:04:48.569Z,13.51
2019-05-19T02:05:25.483Z,13.42
2019-05-19T02:06:02.544Z,13.37
2019-05-19T02:06:38.573Z,13.29
2019-05-19T02:07:15.163Z,13.29
2019-05-19T02:07:51.259Z,13.28
2019-05-19T02:08:28.006Z,13.26
2019-05-19T02:09:05.873Z,13.31
2019-05-19T02:09:42.598Z,13.28
2019-05-19T02:10:20.042Z,13.32
2019-05-19T02:10:56.443Z,13.35
2019-05-19T02:11:33.112Z,13.33
2019-05-19T02:12:09.269Z,13.37
2019-05-19T02:12:46.644Z,13.42
2019-05-19T02:13:23.247Z,13.42
2019-05-19T02:14:00.027Z,13.36
2019-05-19T02:14:36.817Z,13.38
2019-05-19T02:15:13.245Z,13.36
2019-05-19T02:15:48.983Z,13.36
2019-05-19T02:16:25.570Z,13.40
2019-05-19T02:17:02.317Z,13.39
2019-05-19T02:17:38.110Z,13.37
2019-05-19T02:18:15.381Z,13.42
2019-05-19T02:18:52.251Z,13.38
2019-05-19T02:19:28.342Z,13.42
2019-05-19T02:20:04.448Z,13.43
2019-05-19T02:20:41.110Z,13.43
2019-05-19T02:21:17.493Z,13.42
2019-05-19T02:21:53.835Z,13.43
2019-05-19T02:22:30.455Z,13.42
2019-05-19T02:23:07.030Z,13.40
2019-05-19T02:23:44.034Z,13.39
2019-05-19T02:24:20.144Z,13.36
2019-05-19T02:24:56.003Z,13.35
2019-05-19T02:25:32.074Z,13.36
2019-05-19T02:26:08.588Z,13.39
2019-05-19T02:26:44.632Z,13.36
2019-05-19T02:27:20.641Z,13.36
2019-05-19T02:27:57.149Z,13.37
2019-05-19T02:28:33.446Z,13.37
2019-05-19T02:29:10.466Z,13.36
2019-05-19T02:29:47.119Z,13.36
2019-05-19T02:30:23.881Z,13.37
2019-05-19T02:31:00.128Z,13.35
2019-05-19T02:31:36.787Z,13.35
2019-05-19T02:32:12.882Z,13.35
2019-05-19T02:32:49.259Z,13.34
2019-05-19T02:33:26.032Z,13.36
2019-05-19T02:34:01.635Z,13.34
2019-05-19T02:34:38.017Z,13.34
2019-05-19T02:35:15.192Z,13.36
2019-05-19T02:35:50.666Z,13.36
2019-05-19T02:36:26.718Z,13.37
2019-05-19T02:37:03.482Z,13.39
2019-05-19T02:37:39.621Z,13.37
2019-05-19T02:38:16.854Z,13.44
2019-05-19T02:38:52.899Z,13.52
2019-05-19T02:39:28.531Z,13.46
2019-05-19T02:40:05.966Z,13.42
2019-05-19T02:40:44.172Z,13.43
2019-05-19T02:41:22.975Z,13.40
2019-05-19T02:42:01.670Z,13.42
2019-05-19T02:42:42.637Z,13.45
2019-05-19T02:43:20.408Z,13.38
2019-05-19T02:43:59.139Z,13.36
2019-05-19T02:44:37.151Z,13.33
2019-05-19T02:45:13.316Z,13.33
2019-05-19T02:45:52.988Z,13.32
2019-05-19T02:46:32.120Z,13.33
2019-05-19T02:47:10.026Z,13.33
2019-05-19T02:47:47.462Z,13.33
2019-05-19T02:48:26.652Z,13.29
2019-05-19T02:49:03.717Z,13.34
2019-05-19T02:49:41.631Z,13.29
2019-05-19T02:50:18.533Z,13.30
2019-05-19T02:50:56.771Z,13.28
2019-05-19T02:51:35.933Z,13.29
2019-05-19T02:52:13.673Z,13.29
2019-05-19T02:52:51.171Z,13.31
2019-05-19T02:53:28.169Z,13.25
2019-05-19T02:54:06.833Z,13.25
2019-05-19T02:54:43.944Z,13.26
2019-05-19T02:55:21.107Z,13.24
2019-05-19T02:55:59.312Z,13.23
2019-05-19T02:56:36.319Z,13.22
2019-05-19T02:57:13.686Z,13.24
2019-05-19T02:57:53.411Z,13.23
2019-05-19T02:58:29.400Z,13.33
2019-05-19T02:59:05.756Z,13.30
2019-05-19T02:59:42.465Z,13.29
2019-05-19T03:00:18.233Z,13.24
2019-05-19T03:00:54.398Z,13.24
2019-05-19T03:01:31.676Z,13.22
2019-05-19T03:02:11.111Z,13.24
2019-05-19T03:02:47.569Z,13.24
2019-05-19T03:03:24.196Z,13.26
2019-05-19T03:04:00.807Z,13.30
2019-05-19T03:04:37.415Z,13.42
2019-05-19T03:05:14.636Z,13.33
2019-05-19T03:05:50.111Z,13.28
2019-05-19T03:06:26.137Z,13.25
2019-05-19T03:07:03.252Z,13.24
2019-05-19T03:07:39.313Z,13.21
2019-05-19T03:08:15.949Z,13.17
2019-05-19T03:08:52.297Z,13.18
2019-05-19T03:09:28.223Z,13.17
2019-05-19T03:10:04.656Z,13.16
2019-05-19T03:10:41.277Z,13.14
2019-05-19T03:11:17.382Z,13.14
2019-05-19T03:11:53.404Z,13.15
2019-05-19T03:12:29.479Z,13.16
2019-05-19T03:13:04.997Z,13.13
2019-05-19T03:13:41.048Z,13.18
2019-05-19T03:14:17.658Z,13.20
2019-05-19T03:14:53.137Z,13.21
2019-05-19T03:15:29.476Z,13.18
2019-05-19T03:16:06.493Z,13.18
2019-05-19T03:16:41.955Z,13.18
2019-05-19T03:17:18.563Z,13.16
2019-05-19T03:17:54.972Z,13.13
2019-05-19T03:18:30.606Z,13.07
2019-05-19T03:19:07.316Z,13.03
2019-05-19T03:19:43.936Z,13.02
2019-05-19T03:20:19.388Z,13.04
2019-05-19T03:21:09.849Z,13.02
2019-05-19T03:21:33.772Z,13.00
2019-05-19T03:22:09.268Z,13.20
2019-05-19T03:22:45.749Z,13.22
2019-05-19T03:23:22.242Z,13.19
2019-05-19T03:23:58.464Z,13.18
2019-05-19T03:24:34.817Z,13.19
2019-05-19T03:25:10.945Z,13.20
2019-05-19T03:25:47.370Z,13.19
2019-05-19T03:26:23.369Z,13.20
2019-05-19T03:27:00.659Z,13.27
2019-05-19T03:27:37.411Z,13.25
2019-05-19T03:28:14.018Z,13.21
2019-05-19T03:28:50.673Z,13.22
2019-05-19T03:29:31.057Z,13.20
2019-05-19T03:30:26.045Z,13.20
2019-05-19T03:31:32.633Z,13.21
2019-05-19T03:32:30.771Z,13.17
2019-05-19T03:33:07.135Z,13.23
2019-05-19T03:33:46.383Z,13.27
2019-05-19T03:34:22.528Z,13.25
2019-05-19T03:34:59.206Z,13.23
2019-05-19T03:35:35.362Z,13.25
2019-05-19T03:36:11.543Z,13.25
2019-05-19T03:36:46.971Z,13.24
2019-05-19T03:37:23.043Z,13.35
2019-05-19T03:37:59.881Z,13.32
2019-05-19T03:38:35.969Z,13.31
2019-05-19T03:39:12.051Z,13.30
2019-05-19T03:39:49.069Z,13.27
2019-05-19T03:40:25.145Z,13.26
2019-05-19T03:41:01.806Z,13.22
2019-05-19T03:41:38.783Z,13.16
2019-05-19T03:42:14.273Z,13.11
2019-05-19T03:42:51.916Z,13.13
2019-05-19T03:43:28.588Z,13.17
2019-05-19T03:44:04.972Z,13.15
2019-05-19T03:44:41.925Z,13.22
2019-05-19T03:45:17.944Z,13.28
2019-05-19T03:45:53.436Z,13.29
2019-05-19T03:46:30.081Z,13.30
2019-05-19T03:47:06.139Z,13.28
2019-05-19T03:47:42.009Z,13.28
2019-05-19T03:48:18.040Z,13.28
2019-05-19T03:48:54.985Z,13.25
2019-05-19T03:49:30.556Z,13.23
2019-05-19T03:50:07.325Z,13.24
2019-05-19T03:50:43.331Z,13.29
2019-05-19T03:51:30.365Z,13.28
2019-05-19T03:51:57.207Z,13.29
2019-05-19T03:52:33.844Z,13.31
2019-05-19T03:53:09.893Z,13.31
2019-05-19T03:53:46.865Z,13.27
2019-05-19T03:54:23.288Z,13.25
2019-05-19T03:54:59.550Z,13.23
2019-05-19T03:55:35.615Z,13.22
2019-05-19T03:56:12.319Z,13.19
2019-05-19T03:56:48.929Z,13.16
2019-05-19T03:57:24.965Z,13.16
2019-05-19T03:58:01.851Z,13.18
2019-05-19T03:58:37.305Z,13.16
2019-05-19T03:59:13.918Z,13.19
2019-05-19T03:59:49.989Z,13.19
2019-05-19T04:00:26.361Z,13.19
2019-05-19T04:01:03.015Z,13.17
2019-05-19T04:01:39.088Z,13.13
2019-05-19T04:02:14.534Z,13.21
2019-05-19T04:02:50.564Z,13.22
2019-05-19T04:03:26.662Z,13.20
2019-05-19T04:04:02.579Z,13.21
2019-05-19T04:04:40.035Z,13.20
2019-05-19T04:05:16.765Z,13.18
2019-05-19T04:05:52.215Z,13.18
2019-05-19T04:06:29.069Z,13.18
2019-05-19T04:07:05.158Z,13.20
2019-05-19T04:07:40.701Z,13.20
2019-05-19T04:08:17.081Z,13.21
2019-05-19T04:08:53.418Z,13.20
2019-05-19T04:09:28.927Z,13.22
2019-05-19T04:10:06.475Z,13.21
2019-05-19T04:10:43.067Z,13.21
2019-05-19T04:11:19.530Z,13.21
2019-05-19T04:11:57.324Z,13.18
2019-05-19T04:12:34.371Z,13.17
2019-05-19T04:13:10.515Z,13.17
2019-05-19T04:13:46.502Z,13.18
2019-05-19T04:14:22.505Z,13.25
2019-05-19T04:14:58.660Z,13.27
2019-05-19T04:15:35.320Z,13.31
2019-05-19T04:16:11.320Z,13.32
2019-05-19T04:16:50.188Z,13.39
2019-05-19T04:17:26.910Z,13.40
2019-05-19T04:18:03.538Z,13.46
2019-05-19T04:18:39.584Z,13.55
2019-05-19T04:19:16.198Z,13.48
2019-05-19T04:19:52.249Z,13.60
2019-05-19T04:20:28.379Z,13.54
2019-05-19T04:21:04.620Z,13.53
2019-05-19T04:21:48.927Z,13.54
2019-05-19T04:22:18.951Z,13.56
2019-05-19T04:22:55.620Z,13.57
2019-05-19T04:23:31.671Z,13.54
2019-05-19T04:24:07.723Z,13.56
2019-05-19T04:24:46.236Z,13.55
2019-05-19T04:25:22.952Z,13.59
2019-05-19T04:26:00.689Z,13.58
2019-05-19T04:26:37.304Z,13.56
2019-05-19T04:27:13.335Z,13.47
2019-05-19T04:27:49.743Z,13.46
2019-05-19T04:28:25.785Z,13.42
2019-05-19T04:29:02.471Z,13.49
2019-05-19T04:29:39.617Z,13.54
2019-05-19T04:30:16.286Z,13.58
2019-05-19T04:30:52.254Z,13.63
2019-05-19T04:31:28.324Z,13.62
2019-05-19T04:32:05.329Z,13.57
2019-05-19T04:32:42.367Z,13.58
2019-05-19T04:33:18.425Z,13.58
2019-05-19T04:33:54.446Z,13.63
2019-05-19T04:34:31.261Z,13.63
2019-05-19T04:35:08.638Z,13.61
2019-05-19T04:35:45.578Z,13.57
2019-05-19T04:36:22.556Z,13.55
2019-05-19T04:36:59.225Z,13.53
2019-05-19T04:37:35.332Z,13.56
2019-05-19T04:38:11.334Z,13.46
2019-05-19T04:38:47.505Z,13.34
2019-05-19T04:39:23.516Z,13.31
2019-05-19T04:40:00.044Z,13.26
2019-05-19T04:40:35.541Z,13.28
2019-05-19T04:41:12.007Z,13.27
2019-05-19T04:41:48.029Z,13.20
2019-05-19T04:42:23.492Z,13.19
2019-05-19T04:42:59.575Z,13.13
2019-05-19T04:43:36.259Z,13.15
2019-05-19T04:44:11.719Z,13.15
2019-05-19T04:44:48.046Z,13.17
2019-05-19T04:45:24.039Z,13.11
2019-05-19T04:46:00.477Z,13.14
2019-05-19T04:46:37.437Z,13.18
2019-05-19T04:47:14.066Z,13.14
2019-05-19T04:47:49.518Z,13.14
2019-05-19T04:48:26.222Z,13.16
2019-05-19T04:49:02.427Z,13.13
2019-05-19T04:49:37.877Z,13.17
2019-05-19T04:50:14.235Z,13.14
2019-05-19T04:50:50.772Z,13.10
2019-05-19T04:51:26.399Z,13.08
2019-05-19T04:52:06.898Z,13.11
2019-05-19T04:52:40.235Z,12.99
2019-05-19T04:53:15.795Z,12.94
2019-05-19T04:53:51.822Z,13.06
2019-05-19T04:54:28.644Z,13.10
2019-05-19T04:55:04.217Z,13.11
2019-05-19T04:55:40.233Z,13.10
2019-05-19T04:56:19.524Z,13.11
2019-05-19T04:56:54.050Z,13.16
2019-05-19T04:57:31.352Z,13.22
2019-05-19T04:58:07.974Z,13.17
2019-05-19T04:58:44.396Z,13.19
2019-05-19T04:59:21.302Z,13.17
2019-05-19T04:59:57.656Z,13.18
2019-05-19T05:00:33.653Z,13.15
2019-05-19T05:01:09.684Z,13.28
2019-05-19T05:01:45.725Z,13.32
2019-05-19T05:02:21.173Z,13.30
2019-05-19T05:02:57.656Z,13.23
2019-05-19T05:03:34.321Z,13.31
2019-05-19T05:04:10.375Z,13.35
2019-05-19T05:04:46.424Z,13.30
2019-05-19T05:05:22.514Z,13.29
2019-05-19T05:05:58.180Z,13.28
2019-05-19T05:06:34.839Z,13.30
2019-05-19T05:07:11.447Z,13.30
2019-05-19T05:07:47.879Z,13.30
2019-05-19T05:08:30.303Z,13.28
2019-05-19T05:09:04.036Z,13.26
2019-05-19T05:09:39.472Z,13.39
2019-05-19T05:10:16.026Z,13.31
2019-05-19T05:10:52.054Z,13.30
2019-05-19T05:11:28.346Z,13.22
2019-05-19T05:12:05.272Z,13.08
2019-05-19T05:12:41.631Z,13.01
2019-05-19T05:13:18.001Z,12.99
2019-05-19T05:13:54.026Z,12.95
2019-05-19T05:14:30.804Z,12.95
2019-05-19T05:15:06.501Z,12.94
2019-05-19T05:15:42.525Z,12.96
2019-05-19T05:16:18.539Z,12.89
2019-05-19T05:16:55.049Z,12.82
2019-05-19T05:17:31.570Z,12.86
2019-05-19T05:18:09.116Z,12.85
2019-05-19T05:18:47.840Z,12.80
2019-05-19T05:19:22.918Z,12.84
2019-05-19T05:19:59.503Z,12.85
2019-05-19T05:20:36.030Z,12.88
2019-05-19T05:21:12.120Z,12.90
2019-05-19T05:21:48.632Z,12.88
2019-05-19T05:22:24.039Z,12.87
2019-05-19T05:23:01.097Z,12.86
2019-05-19T05:23:38.079Z,12.87
2019-05-19T05:24:13.832Z,12.86
2019-05-19T05:24:50.463Z,12.91
2019-05-19T05:25:26.625Z,12.95
2019-05-19T05:26:02.152Z,12.98
2019-05-19T05:26:38.788Z,13.03
2019-05-19T05:27:14.777Z,13.08
2019-05-19T05:27:50.232Z,13.11
2019-05-19T05:28:27.117Z,13.11
2019-05-19T05:29:03.822Z,13.15
2019-05-19T05:29:39.967Z,13.18
2019-05-19T05:30:16.925Z,13.23
2019-05-19T05:30:54.178Z,13.31
2019-05-19T05:31:30.098Z,13.33
2019-05-19T05:32:06.207Z,13.36
2019-05-19T05:32:42.613Z,13.41
2019-05-19T05:33:18.754Z,13.41
2019-05-19T05:33:54.874Z,13.43
2019-05-19T05:34:31.081Z,13.49
2019-05-19T05:35:07.824Z,13.49
2019-05-19T05:35:44.506Z,13.51
2019-05-19T05:36:20.531Z,13.50
2019-05-19T05:36:56.641Z,13.53
2019-05-19T05:37:33.257Z,13.53
2019-05-19T05:38:10.005Z,13.56
2019-05-19T05:38:46.371Z,13.61
2019-05-19T05:39:22.445Z,13.61
2019-05-19T05:39:59.498Z,13.66
2019-05-19T05:40:35.086Z,13.68
2019-05-19T05:41:12.069Z,13.65
2019-05-19T05:41:48.784Z,13.64
2019-05-19T05:42:25.441Z,13.68
2019-05-19T05:43:02.324Z,13.72
2019-05-19T05:43:38.356Z,13.76
2019-05-19T05:44:14.668Z,13.89
2019-05-19T05:44:51.366Z,13.91
2019-05-19T05:45:28.967Z,13.88
2019-05-19T05:46:04.886Z,13.96
2019-05-19T05:46:40.947Z,13.94
2019-05-19T05:47:17.896Z,13.82
2019-05-19T05:47:53.350Z,13.66
2019-05-19T05:48:29.703Z,13.67
2019-05-19T05:49:06.373Z,13.72
2019-05-19T05:49:42.987Z,13.75
2019-05-19T05:50:19.578Z,13.85
2019-05-19T05:50:56.046Z,13.85
2019-05-19T05:51:32.189Z,13.98
2019-05-19T05:52:08.334Z,13.92
2019-05-19T05:52:44.686Z,13.91
2019-05-19T05:53:21.043Z,13.85
2019-05-19T05:53:58.287Z,13.85
2019-05-19T05:54:35.588Z,13.80
2019-05-19T05:55:11.138Z,13.77
2019-05-19T05:55:47.191Z,13.78
2019-05-19T05:56:23.842Z,13.78
2019-05-19T05:56:59.160Z,13.72
2019-05-19T05:57:35.206Z,13.76
2019-05-19T05:58:11.624Z,13.74
2019-05-19T05:58:48.068Z,13.72
2019-05-19T05:59:24.611Z,13.66
2019-05-19T06:00:01.301Z,13.71
2019-05-19T06:00:37.393Z,13.76
2019-05-19T06:01:13.771Z,13.85
2019-05-19T06:01:49.768Z,14.07
2019-05-19T06:02:25.272Z,14.23
2019-05-19T06:03:01.410Z,14.28
2019-05-19T06:03:38.000Z,14.26
2019-05-19T06:04:13.553Z,14.21
2019-05-19T06:04:49.555Z,14.18
2019-05-19T06:05:25.905Z,14.09
2019-05-19T06:06:02.366Z,14.07
2019-05-19T06:06:38.953Z,14.17
2019-05-19T06:07:15.603Z,14.17
2019-05-19T06:07:51.999Z,14.19
2019-05-19T06:08:28.078Z,14.19
2019-05-19T06:09:06.449Z,14.15
2019-05-19T06:09:42.650Z,14.11
2019-05-19T06:10:18.659Z,14.15
2019-05-19T06:10:55.833Z,14.19
2019-05-19T06:11:32.204Z,14.17
2019-05-19T06:12:09.083Z,14.13
2019-05-19T06:12:45.453Z,14.05
2019-05-19T06:13:20.894Z,14.00
2019-05-19T06:13:57.643Z,13.97
2019-05-19T06:14:33.755Z,13.96
2019-05-19T06:15:10.241Z,13.88
2019-05-19T06:15:47.241Z,13.83
2019-05-19T06:16:24.396Z,13.83
2019-05-19T06:17:00.287Z,13.86
2019-05-19T06:17:36.934Z,13.87
2019-05-19T06:18:13.296Z,13.87
2019-05-19T06:18:49.739Z,13.85
2019-05-19T06:19:26.708Z,13.90
2019-05-19T06:20:03.590Z,14.06
2019-05-19T06:20:39.440Z,14.22
2019-05-19T06:21:15.659Z,14.22
2019-05-19T06:21:52.637Z,14.28
2019-05-19T06:22:28.817Z,14.24
2019-05-19T06:23:05.698Z,14.29
2019-05-19T06:23:42.874Z,14.32
2019-05-19T06:24:18.915Z,14.40
2019-05-19T06:24:58.852Z,14.46
2019-05-19T06:25:34.448Z,14.53
2019-05-19T06:26:11.080Z,14.72
2019-05-19T06:26:47.969Z,14.67
2019-05-19T06:27:24.662Z,14.57
2019-05-19T06:28:00.784Z,14.55
2019-05-19T06:28:37.128Z,14.61
2019-05-19T06:29:13.125Z,14.70
2019-05-19T06:29:48.585Z,14.61
2019-05-19T06:30:24.637Z,14.50
2019-05-19T06:31:01.067Z,14.42
2019-05-19T06:31:36.670Z,14.41
2019-05-19T06:32:33.930Z,14.40
2019-05-19T06:33:10.662Z,14.45
2019-05-19T06:33:46.121Z,14.75
2019-05-19T06:34:22.728Z,14.67
2019-05-19T06:34:59.155Z,14.78
2019-05-19T06:35:35.238Z,14.76
2019-05-19T06:36:12.079Z,14.55
2019-05-19T06:36:49.011Z,14.48
2019-05-19T06:37:25.198Z,14.38
2019-05-19T06:38:02.909Z,14.40
2019-05-19T06:38:39.215Z,14.53
2019-05-19T06:39:14.982Z,14.43
2019-05-19T06:39:51.698Z,14.46
2019-05-19T06:40:27.796Z,14.52
2019-05-19T06:41:03.938Z,14.57
2019-05-19T06:41:40.958Z,14.59
2019-05-19T06:42:17.551Z,14.73
2019-05-19T06:42:53.342Z,14.83
2019-05-19T06:43:30.616Z,14.95
2019-05-19T06:44:07.214Z,14.89
2019-05-19T06:44:42.725Z,14.84
2019-05-19T06:45:18.742Z,14.80
2019-05-19T06:45:54.830Z,14.77
2019-05-19T06:46:31.444Z,14.68
2019-05-19T06:47:08.888Z,14.88
2019-05-19T06:47:45.247Z,15.05
2019-05-19T06:48:20.718Z,15.13
2019-05-19T06:48:56.970Z,15.18
2019-05-19T06:49:33.047Z,15.47
2019-05-19T06:50:10.169Z,15.69
2019-05-19T06:50:46.787Z,15.72
2019-05-19T06:51:23.571Z,15.68
2019-05-19T06:51:59.434Z,15.66
2019-05-19T06:52:37.450Z,15.83
2019-05-19T06:53:14.829Z,15.69
2019-05-19T06:53:50.489Z,15.62
2019-05-19T06:54:27.593Z,15.72
2019-05-19T06:55:04.295Z,15.76
2019-05-19T06:55:40.113Z,16.07
2019-05-19T06:56:17.127Z,16.26
2019-05-19T06:56:53.507Z,16.22
2019-05-19T06:57:30.616Z,16.15
2019-05-19T06:58:06.624Z,15.94
2019-05-19T06:58:43.974Z,15.85
2019-05-19T06:59:20.110Z,15.93
2019-05-19T06:59:56.759Z,15.83
2019-05-19T07:00:33.852Z,15.95
2019-05-19T07:01:09.931Z,16.00
2019-05-19T07:01:46.934Z,16.14
2019-05-19T07:02:23.700Z,16.15
2019-05-19T07:02:59.898Z,16.00
2019-05-19T07:03:36.935Z,16.06
2019-05-19T07:04:13.908Z,16.02
2019-05-19T07:04:49.967Z,15.99
2019-05-19T07:05:26.743Z,15.94
2019-05-19T07:06:03.578Z,16.09
2019-05-19T07:06:40.109Z,16.20
2019-05-19T07:07:16.712Z,16.40
2019-05-19T07:07:53.361Z,16.49
2019-05-19T07:08:29.569Z,16.63
2019-05-19T07:09:08.412Z,16.80
2019-05-19T07:09:57.446Z,16.81
2019-05-19T07:10:23.828Z,17.02
2019-05-19T07:11:01.955Z,17.10
2019-05-19T07:11:38.608Z,17.25
2019-05-19T07:12:14.886Z,17.38
2019-05-19T07:12:51.461Z,17.03
2019-05-19T07:13:28.923Z,16.99
2019-05-19T07:14:05.327Z,17.28
2019-05-19T07:14:42.288Z,17.39
2019-05-19T07:15:19.224Z,17.28
2019-05-19T07:15:55.700Z,17.01
2019-05-19T07:16:33.100Z,16.87
2019-05-19T07:17:09.711Z,16.90
2019-05-19T07:17:45.777Z,16.89
2019-05-19T07:18:22.392Z,16.99
2019-05-19T07:18:59.364Z,17.01
2019-05-19T07:19:35.871Z,17.19
2019-05-19T07:20:13.370Z,17.19
2019-05-19T07:20:50.010Z,16.97
2019-05-19T07:21:27.256Z,16.70
2019-05-19T07:22:04.208Z,16.62
2019-05-19T07:22:40.838Z,16.51
2019-05-19T07:23:27.739Z,16.90
2019-05-19T07:23:55.256Z,16.97
2019-05-19T07:24:31.985Z,17.04
2019-05-19T07:25:08.233Z,17.11
2019-05-19T07:25:45.284Z,16.96
2019-05-19T07:26:21.889Z,17.13
2019-05-19T07:26:58.263Z,17.26
2019-05-19T07:27:35.053Z,17.28
2019-05-19T07:28:12.349Z,17.32
2019-05-19T07:28:48.748Z,17.31
2019-05-19T07:29:25.424Z,17.30
2019-05-19T07:30:02.882Z,17.38
2019-05-19T07:30:39.433Z,17.43
2019-05-19T07:31:16.387Z,17.56
2019-05-19T07:31:53.409Z,17.48
2019-05-19T07:32:30.151Z,17.27
2019-05-19T07:33:07.202Z,17.15
2019-05-19T07:33:43.853Z,17.01
2019-05-19T07:34:19.922Z,16.87
2019-05-19T07:34:56.680Z,16.88
2019-05-19T07:35:33.652Z,17.03
2019-05-19T07:36:10.446Z,17.19
2019-05-19T07:36:47.375Z,17.14
2019-05-19T07:37:24.543Z,17.37
2019-05-19T07:38:01.198Z,17.47
2019-05-19T07:38:38.316Z,17.43
2019-05-19T07:39:14.942Z,17.49
2019-05-19T07:39:51.725Z,17.46
2019-05-19T07:40:28.773Z,17.44
2019-05-19T07:41:05.431Z,17.45
2019-05-19T07:41:41.583Z,17.29
2019-05-19T07:42:18.566Z,17.41
2019-05-19T07:42:55.855Z,17.25
2019-05-19T07:43:32.048Z,17.39
2019-05-19T07:44:08.649Z,17.38
2019-05-19T07:44:45.506Z,17.40
2019-05-19T07:45:22.416Z,17.29
2019-05-19T07:45:59.887Z,17.33
2019-05-19T07:46:36.594Z,17.22
2019-05-19T07:47:13.190Z,17.23
2019-05-19T07:47:49.835Z,17.21
2019-05-19T07:48:26.444Z,17.30
2019-05-19T07:49:02.674Z,17.38
2019-05-19T07:49:39.268Z,17.42
2019-05-19T07:50:15.875Z,17.32
2019-05-19T07:50:52.037Z,17.42
2019-05-19T07:51:28.821Z,17.29
2019-05-19T07:52:05.809Z,17.47